Terminal Aerodrome Forecast
Issued by NWS Missoula, MT

Home | Current Version | Previous Version | Text Only | Print | Product List | Glossary On
Versions: 1 2 3 4 5 6 7 8 9 10 11 12 13 14 15 16 17
000
FTUS45 KMSO 292118 AAA
TAFMSO
TAF AMD
KMSO 292118Z 2921/3018 32008KT P6SM VCSH BKN080
     FM300100 31005KT P6SM SCT080
     FM301400 VRB05KT P6SM VCSH OVC090=

USA.gov is the U.S. government's official web portal to all federal, state and local government web resources and services.